createdAt,value
2023-03-24T00:00:47.844Z,11.20
2023-03-24T00:03:17.867Z,11.20
2023-03-24T00:05:46.092Z,11.20
2023-03-24T00:08:17.067Z,11.20
2023-03-24T00:10:47.678Z,11.20
2023-03-24T00:13:16.239Z,11.20
2023-03-24T00:15:45.427Z,11.20
2023-03-24T00:18:13.401Z,11.20
2023-03-24T00:20:42.333Z,11.20
2023-03-24T00:23:10.287Z,11.20
2023-03-24T00:25:40.151Z,11.20
2023-03-24T00:28:10.071Z,11.20
2023-03-24T00:30:38.027Z,11.30
2023-03-24T00:33:06.019Z,11.30
2023-03-24T00:35:34.336Z,11.30
2023-03-24T00:38:02.648Z,11.30
2023-03-24T00:40:30.671Z,11.30
2023-03-24T00:42:59.959Z,11.30
2023-03-24T00:45:29.312Z,11.20
2023-03-24T00:47:58.104Z,11.20
2023-03-24T00:50:27.612Z,11.20
2023-03-24T00:52:58.418Z,11.20
2023-03-24T00:55:28.876Z,11.20
2023-03-24T00:57:57.264Z,11.10
2023-03-24T01:00:28.242Z,11.10
2023-03-24T01:02:58.413Z,11.20
2023-03-24T01:05:28.532Z,11.10
2023-03-24T01:07:58.063Z,11.10
2023-03-24T01:10:27.112Z,11.10
2023-03-24T01:12:57.364Z,11.10
2023-03-24T01:15:29.620Z,11.20
2023-03-24T01:17:58.035Z,11.20
2023-03-24T01:20:26.118Z,11.10
2023-03-24T01:22:54.112Z,11.20
2023-03-24T01:25:25.646Z,11.10
2023-03-24T01:27:54.456Z,11.10
2023-03-24T01:30:24.992Z,11.10
2023-03-24T01:32:54.699Z,11.10
2023-03-24T01:35:28.477Z,11.10
2023-03-24T01:37:57.216Z,11.10
2023-03-24T01:40:28.885Z,11.10
2023-03-24T01:42:56.829Z,11.10
2023-03-24T01:45:56.680Z,11.20
2023-03-24T01:48:29.708Z,11.10
2023-03-24T01:51:02.833Z,11.20
2023-03-24T01:53:31.982Z,11.10
2023-03-24T01:56:01.639Z,11.20
2023-03-24T01:58:32.010Z,11.20
2023-03-24T02:01:00.096Z,11.20
2023-03-24T02:03:34.230Z,11.20
2023-03-24T02:06:03.688Z,11.20
2023-03-24T02:08:37.674Z,11.20
2023-03-24T02:11:06.300Z,11.20
2023-03-24T02:13:34.274Z,11.20
2023-03-24T02:16:15.156Z,11.20
2023-03-24T02:18:52.731Z,11.20
2023-03-24T02:22:03.247Z,11.20
2023-03-24T02:25:05.107Z,11.20
2023-03-24T02:27:52.646Z,11.20
2023-03-24T02:30:34.870Z,11.20
2023-03-24T02:33:31.378Z,11.20
2023-03-24T02:36:35.005Z,11.10
2023-03-24T02:39:32.997Z,11.10
2023-03-24T02:42:08.980Z,11.20
2023-03-24T02:44:43.736Z,11.20
2023-03-24T02:47:17.744Z,11.20
2023-03-24T02:49:55.745Z,11.10
2023-03-24T02:52:30.467Z,11.20
2023-03-24T02:55:03.463Z,11.10
2023-03-24T02:57:36.196Z,11.10
2023-03-24T03:00:13.295Z,11.10
2023-03-24T03:02:45.915Z,11.10
2023-03-24T03:05:19.129Z,11.10
2023-03-24T03:07:48.982Z,11.10
2023-03-24T03:10:24.080Z,11.10
2023-03-24T03:12:55.829Z,11.10
2023-03-24T03:15:26.889Z,11.10
2023-03-24T03:17:59.900Z,11.10
2023-03-24T03:20:34.769Z,11.10
2023-03-24T03:23:08.022Z,11.10
2023-03-24T03:25:42.227Z,11.10
2023-03-24T03:28:13.109Z,11.10
2023-03-24T03:30:45.178Z,11.10
2023-03-24T03:33:24.700Z,11.10
2023-03-24T03:35:57.919Z,11.10
2023-03-24T03:38:32.980Z,11.10
2023-03-24T03:41:05.644Z,11.10
2023-03-24T03:43:34.698Z,11.10
2023-03-24T03:46:06.346Z,11.10
2023-03-24T03:48:34.986Z,11.20
2023-03-24T03:51:12.254Z,11.10
2023-03-24T03:53:47.672Z,11.10
2023-03-24T03:56:19.176Z,11.10
2023-03-24T03:58:48.677Z,11.20
2023-03-24T04:01:19.894Z,11.20
2023-03-24T04:04:05.185Z,11.10
2023-03-24T04:06:40.864Z,11.20
2023-03-24T04:09:24.288Z,11.10
2023-03-24T04:12:20.360Z,11.10
2023-03-24T04:15:13.547Z,11.10
2023-03-24T04:18:22.946Z,11.10
2023-03-24T04:21:04.447Z,11.10
2023-03-24T04:23:40.129Z,11.10
2023-03-24T04:26:26.693Z,11.10
2023-03-24T04:29:09.205Z,11.10
2023-03-24T04:31:42.504Z,11.10
2023-03-24T04:34:17.961Z,11.10
2023-03-24T04:36:50.483Z,11.10
2023-03-24T04:39:28.304Z,11.10
2023-03-24T04:41:58.387Z,11.10
2023-03-24T04:44:28.627Z,11.20
2023-03-24T04:46:58.759Z,11.10
2023-03-24T04:49:27.316Z,11.10
2023-03-24T04:51:55.751Z,11.10
2023-03-24T04:54:24.994Z,11.20
2023-03-24T04:56:54.401Z,11.10
2023-03-24T04:59:22.380Z,11.10
2023-03-24T05:01:51.770Z,11.10
2023-03-24T05:04:21.081Z,11.10
2023-03-24T05:06:50.013Z,11.10
2023-03-24T05:09:18.777Z,11.10
2023-03-24T05:11:46.752Z,11.20
2023-03-24T05:14:14.974Z,11.20
2023-03-24T05:16:43.182Z,11.20
2023-03-24T05:19:12.895Z,11.20
2023-03-24T05:21:41.202Z,11.20
2023-03-24T05:24:09.998Z,11.10
2023-03-24T05:26:38.024Z,11.10
2023-03-24T05:29:06.000Z,11.20
2023-03-24T05:31:33.961Z,11.20
2023-03-24T05:34:01.915Z,11.20
2023-03-24T05:36:31.414Z,11.20
2023-03-24T05:38:59.359Z,11.20
2023-03-24T05:41:27.346Z,11.20
2023-03-24T05:43:55.294Z,11.20
2023-03-24T05:46:25.221Z,11.20
2023-03-24T05:48:54.424Z,11.20
2023-03-24T05:51:22.393Z,11.20
2023-03-24T05:53:52.112Z,11.20
2023-03-24T05:56:20.298Z,11.30
2023-03-24T05:58:48.229Z,11.20
2023-03-24T06:01:18.364Z,11.20
2023-03-24T06:03:47.012Z,11.20
2023-03-24T06:06:15.102Z,11.20
2023-03-24T06:08:45.046Z,11.30
2023-03-24T06:11:14.861Z,11.30
2023-03-24T06:13:42.783Z,11.30
2023-03-24T06:16:11.221Z,11.40
2023-03-24T06:18:40.481Z,11.40
2023-03-24T06:21:08.670Z,11.40
2023-03-24T06:23:36.622Z,11.40
2023-03-24T06:26:10.674Z,11.40
2023-03-24T06:28:42.087Z,11.40
2023-03-24T06:31:14.987Z,11.40
2023-03-24T06:33:43.484Z,11.40
2023-03-24T06:36:13.395Z,11.50
2023-03-24T06:38:41.913Z,11.50
2023-03-24T06:41:10.520Z,11.50
2023-03-24T06:43:39.796Z,11.60
2023-03-24T06:46:08.214Z,11.60
2023-03-24T06:48:36.631Z,11.70
2023-03-24T06:51:05.244Z,11.70
2023-03-24T06:53:33.192Z,11.70
2023-03-24T06:56:01.205Z,11.70
2023-03-24T06:58:29.220Z,11.70
2023-03-24T07:01:00.017Z,11.70
2023-03-24T07:03:28.282Z,11.70
2023-03-24T07:05:57.209Z,11.70
2023-03-24T07:08:37.502Z,11.60
2023-03-24T07:11:07.626Z,11.70
2023-03-24T07:13:35.643Z,11.70
2023-03-24T07:16:05.459Z,11.80
2023-03-24T07:18:33.449Z,11.90
2023-03-24T07:21:01.732Z,11.90
2023-03-24T07:23:30.385Z,12.00
2023-03-24T07:25:58.364Z,11.90
2023-03-24T07:28:26.729Z,11.80
2023-03-24T07:30:55.504Z,11.60
2023-03-24T07:33:25.177Z,11.60
2023-03-24T07:35:56.207Z,11.40
2023-03-24T07:38:24.398Z,11.40
2023-03-24T07:40:52.479Z,11.50
2023-03-24T07:43:20.508Z,11.50
2023-03-24T07:45:48.790Z,11.60
2023-03-24T07:48:17.032Z,11.70
2023-03-24T07:50:46.573Z,11.60
2023-03-24T07:53:18.596Z,11.80
2023-03-24T07:55:46.853Z,11.80
2023-03-24T07:58:14.922Z,11.90
2023-03-24T08:00:43.159Z,12.00
2023-03-24T08:03:14.448Z,12.00
2023-03-24T08:05:43.512Z,12.00
2023-03-24T08:08:12.909Z,12.10
2023-03-24T08:10:40.948Z,12.00
2023-03-24T08:13:08.896Z,12.00
2023-03-24T08:15:37.948Z,11.90
2023-03-24T08:18:06.502Z,11.90
2023-03-24T08:20:34.950Z,11.90
2023-03-24T08:23:04.959Z,11.80
2023-03-24T08:25:35.636Z,11.80
2023-03-24T08:28:04.339Z,11.80
2023-03-24T08:30:32.642Z,11.80
2023-03-24T08:33:02.445Z,11.80
2023-03-24T08:35:32.628Z,11.90
2023-03-24T08:38:06.066Z,12.00
2023-03-24T08:40:38.666Z,12.00
2023-03-24T08:43:09.030Z,12.20
2023-03-24T08:45:37.778Z,12.10
2023-03-24T08:48:08.079Z,12.10
2023-03-24T08:50:39.164Z,12.10
2023-03-24T08:53:07.465Z,12.00
2023-03-24T08:55:41.636Z,12.00
2023-03-24T08:58:09.968Z,12.00
2023-03-24T09:00:37.898Z,12.00
2023-03-24T09:03:06.684Z,12.10
2023-03-24T09:05:44.500Z,12.10
2023-03-24T09:08:13.466Z,12.30
2023-03-24T09:10:43.056Z,12.30
2023-03-24T09:13:11.533Z,12.40
2023-03-24T09:15:39.649Z,12.30
2023-03-24T09:18:07.936Z,12.30
2023-03-24T09:20:36.174Z,12.30
2023-03-24T09:23:04.271Z,12.20
2023-03-24T09:25:32.226Z,12.20
2023-03-24T09:28:01.762Z,12.10
2023-03-24T09:30:31.328Z,11.90
2023-03-24T09:33:00.349Z,11.90
2023-03-24T09:35:28.808Z,11.80
2023-03-24T09:37:57.235Z,11.70
2023-03-24T09:40:27.045Z,11.60
2023-03-24T09:43:02.411Z,11.50
2023-03-24T09:45:37.628Z,11.40
2023-03-24T09:48:13.162Z,11.40
2023-03-24T09:50:47.760Z,11.40
2023-03-24T09:53:28.087Z,11.30
2023-03-24T09:55:56.568Z,11.30
2023-03-24T09:58:28.633Z,11.30
2023-03-24T10:00:58.100Z,11.40
2023-03-24T10:03:26.290Z,11.50
2023-03-24T10:05:59.555Z,11.70
2023-03-24T10:08:33.214Z,11.90
2023-03-24T10:11:05.765Z,12.00
2023-03-24T10:13:44.939Z,12.10
2023-03-24T10:16:21.389Z,12.20
2023-03-24T10:18:58.045Z,12.30
2023-03-24T10:21:28.109Z,12.20
2023-03-24T10:24:03.471Z,12.20
2023-03-24T10:26:41.177Z,12.20
2023-03-24T10:29:22.952Z,12.30
2023-03-24T10:31:55.296Z,12.40
2023-03-24T10:34:26.198Z,12.50
2023-03-24T10:36:55.015Z,12.60
2023-03-24T10:39:31.289Z,12.80
2023-03-24T10:42:16.730Z,12.90
2023-03-24T10:44:45.394Z,13.00
2023-03-24T10:47:17.267Z,13.00
2023-03-24T10:49:54.929Z,13.10
2023-03-24T10:52:24.547Z,13.20
2023-03-24T10:54:57.498Z,13.30
2023-03-24T10:57:27.140Z,13.40
2023-03-24T10:59:57.924Z,13.50
2023-03-24T11:02:30.613Z,13.50
2023-03-24T11:05:02.569Z,13.40
2023-03-24T11:07:34.849Z,13.20
2023-03-24T11:10:07.550Z,13.40
2023-03-24T11:12:38.022Z,13.50
2023-03-24T11:15:21.330Z,13.30
2023-03-24T11:17:57.081Z,13.00
2023-03-24T11:20:30.930Z,12.80
2023-03-24T11:23:04.885Z,12.60
2023-03-24T11:25:36.091Z,12.60
2023-03-24T11:28:08.938Z,12.90
2023-03-24T11:30:46.864Z,13.20
2023-03-24T11:33:22.259Z,13.50
2023-03-24T11:36:44.620Z,13.70
2023-03-24T11:39:18.879Z,13.80
2023-03-24T11:41:54.233Z,14.10
2023-03-24T11:44:24.659Z,14.00
2023-03-24T11:46:56.172Z,13.90
2023-03-24T11:49:30.051Z,14.00
2023-03-24T11:51:58.362Z,14.20
2023-03-24T11:54:32.909Z,14.60
2023-03-24T11:57:05.610Z,14.80
2023-03-24T11:59:38.436Z,14.90
2023-03-24T12:02:16.879Z,14.70
2023-03-24T12:05:00.748Z,14.60
2023-03-24T12:08:05.600Z,14.70
2023-03-24T12:10:45.683Z,14.90
2023-03-24T12:13:31.797Z,15.10
2023-03-24T12:16:13.444Z,15.10
2023-03-24T12:19:14.562Z,15.20
2023-03-24T12:21:52.917Z,15.30
2023-03-24T12:24:34.073Z,15.00
2023-03-24T12:27:02.530Z,15.00
2023-03-24T12:29:50.969Z,15.00
2023-03-24T12:32:38.490Z,15.20
2023-03-24T12:35:33.959Z,15.30
2023-03-24T12:38:15.072Z,15.60
2023-03-24T12:41:10.420Z,15.50
2023-03-24T12:43:47.963Z,15.70
2023-03-24T12:46:46.564Z,15.70
2023-03-24T12:49:38.980Z,15.60
2023-03-24T12:52:19.883Z,15.40
2023-03-24T12:54:56.460Z,15.20
2023-03-24T12:57:29.418Z,15.30
2023-03-24T13:00:02.482Z,15.40
2023-03-24T13:02:35.424Z,15.60
2023-03-24T13:05:08.602Z,15.60
2023-03-24T13:07:39.276Z,15.70
2023-03-24T13:10:15.453Z,15.70
2023-03-24T13:12:52.023Z,15.70
2023-03-24T13:15:24.723Z,15.70
2023-03-24T13:17:56.486Z,15.50
2023-03-24T13:20:28.574Z,15.30
2023-03-24T13:22:58.091Z,15.20
2023-03-24T13:25:37.211Z,15.10
2023-03-24T13:28:12.509Z,14.80
2023-03-24T13:30:42.388Z,14.90
2023-03-24T13:33:17.020Z,15.00
2023-03-24T13:36:07.586Z,15.00
2023-03-24T13:38:39.576Z,15.00
2023-03-24T13:41:13.325Z,14.90
2023-03-24T13:43:49.525Z,14.80
2023-03-24T13:46:17.961Z,14.80
2023-03-24T13:48:52.034Z,14.80
2023-03-24T13:51:25.506Z,14.70
2023-03-24T13:53:56.556Z,14.70
2023-03-24T13:56:32.160Z,14.60
2023-03-24T13:59:10.389Z,14.50
2023-03-24T14:01:40.189Z,14.60
2023-03-24T14:04:27.642Z,14.60
2023-03-24T14:06:57.046Z,14.50
2023-03-24T14:09:27.492Z,14.50
2023-03-24T14:12:20.710Z,14.50
2023-03-24T14:15:15.947Z,14.40
2023-03-24T14:17:49.036Z,14.40
2023-03-24T14:20:45.447Z,14.40
2023-03-24T14:23:24.493Z,14.40
2023-03-24T14:25:55.582Z,14.40
2023-03-24T14:28:29.518Z,14.40
2023-03-24T14:31:18.813Z,14.50
2023-03-24T14:34:02.446Z,14.70
2023-03-24T14:36:32.852Z,14.90
2023-03-24T14:39:15.194Z,14.80
2023-03-24T14:41:44.353Z,14.70
2023-03-24T14:44:13.773Z,14.70
2023-03-24T14:46:47.971Z,14.50
2023-03-24T14:49:24.901Z,14.50
2023-03-24T14:51:58.723Z,14.50
2023-03-24T14:54:33.127Z,14.50
2023-03-24T14:57:02.923Z,14.60
2023-03-24T14:59:40.400Z,14.70
2023-03-24T15:02:19.714Z,14.80
2023-03-24T15:05:16.446Z,14.80
2023-03-24T15:07:46.226Z,14.80
2023-03-24T15:10:16.052Z,14.80
2023-03-24T15:12:47.749Z,14.80
2023-03-24T15:15:19.565Z,14.90
2023-03-24T15:17:48.002Z,15.00
2023-03-24T15:20:24.540Z,14.90
2023-03-24T15:22:55.120Z,14.70
2023-03-24T15:25:27.968Z,14.60
2023-03-24T15:27:57.704Z,14.50
2023-03-24T15:30:29.369Z,14.50
2023-03-24T15:32:57.548Z,14.50
2023-03-24T15:35:26.130Z,14.50
2023-03-24T15:37:56.404Z,14.60
2023-03-24T15:40:40.532Z,14.60
2023-03-24T15:43:18.148Z,14.60
2023-03-24T15:46:04.717Z,14.60
2023-03-24T15:48:39.529Z,14.60
2023-03-24T15:51:11.575Z,14.60
2023-03-24T15:53:44.399Z,14.70
2023-03-24T15:56:21.841Z,14.70
2023-03-24T15:58:53.073Z,14.70
2023-03-24T16:01:31.420Z,14.60
2023-03-24T16:04:02.361Z,14.60
2023-03-24T16:06:35.201Z,14.50
2023-03-24T16:09:08.679Z,14.40
2023-03-24T16:11:36.834Z,14.20
2023-03-24T16:14:22.697Z,14.20
2023-03-24T16:16:54.862Z,14.20
2023-03-24T16:19:22.973Z,14.20
2023-03-24T16:21:50.911Z,14.30
2023-03-24T16:24:18.911Z,14.30
2023-03-24T16:26:47.082Z,14.40
2023-03-24T16:29:17.579Z,14.30
2023-03-24T16:31:49.037Z,14.20
2023-03-24T16:34:20.191Z,14.10
2023-03-24T16:36:48.711Z,14.00
2023-03-24T16:39:19.308Z,14.00
2023-03-24T16:41:47.651Z,13.80
2023-03-24T16:44:17.295Z,13.70
2023-03-24T16:46:46.955Z,13.70
2023-03-24T16:49:16.692Z,13.70
2023-03-24T16:51:46.897Z,13.60
2023-03-24T16:54:15.541Z,13.50
2023-03-24T16:56:43.614Z,13.50
2023-03-24T16:59:12.522Z,13.50
2023-03-24T17:01:41.760Z,13.40
2023-03-24T17:04:13.308Z,13.40
2023-03-24T17:06:42.733Z,13.50
2023-03-24T17:09:12.787Z,13.40
2023-03-24T17:11:43.689Z,13.40
2023-03-24T17:14:13.497Z,13.40
2023-03-24T17:16:44.585Z,13.30
2023-03-24T17:19:14.615Z,12.90
2023-03-24T17:21:47.188Z,12.60
2023-03-24T17:24:16.968Z,12.40
2023-03-24T17:26:45.037Z,12.30
2023-03-24T17:29:14.180Z,12.20
2023-03-24T17:31:43.192Z,12.20
2023-03-24T17:34:21.530Z,12.10
2023-03-24T17:36:51.155Z,12.10
2023-03-24T17:39:22.567Z,12.00
2023-03-24T17:41:50.632Z,12.00
2023-03-24T17:44:18.618Z,11.90
2023-03-24T17:46:46.611Z,11.90
2023-03-24T17:49:14.602Z,11.70
2023-03-24T17:51:42.585Z,11.60
2023-03-24T17:54:11.844Z,11.50
2023-03-24T17:56:41.562Z,11.40
2023-03-24T17:59:09.789Z,11.40
2023-03-24T18:01:39.389Z,11.30
2023-03-24T18:04:07.747Z,11.30
2023-03-24T18:06:36.205Z,11.30
2023-03-24T18:09:04.412Z,11.20
2023-03-24T18:11:32.642Z,11.10
2023-03-24T18:14:02.295Z,11.00
2023-03-24T18:16:31.043Z,10.90
2023-03-24T18:19:00.683Z,10.80
2023-03-24T18:21:29.177Z,10.80
2023-03-24T18:23:57.239Z,10.80
2023-03-24T18:26:26.015Z,10.80
2023-03-24T18:28:54.168Z,10.80
2023-03-24T18:31:26.310Z,10.70
2023-03-24T18:33:55.824Z,10.70
2023-03-24T18:36:26.663Z,10.80
2023-03-24T18:38:58.305Z,10.80
2023-03-24T18:41:28.346Z,10.80
2023-03-24T18:43:57.413Z,10.70
2023-03-24T18:46:27.313Z,10.70
2023-03-24T18:48:55.354Z,10.70
2023-03-24T18:51:25.184Z,10.80
2023-03-24T18:53:53.944Z,10.80
2023-03-24T18:56:22.969Z,10.80
2023-03-24T18:58:52.373Z,10.70
2023-03-24T19:01:26.155Z,10.60
2023-03-24T19:03:55.577Z,10.60
2023-03-24T19:06:26.207Z,10.60
2023-03-24T19:08:54.613Z,10.60
2023-03-24T19:11:22.817Z,10.60
2023-03-24T19:13:52.097Z,10.60
2023-03-24T19:16:21.138Z,10.60
2023-03-24T19:18:50.633Z,10.60
2023-03-24T19:21:23.056Z,10.60
2023-03-24T19:23:53.096Z,10.70
2023-03-24T19:26:21.661Z,10.60
2023-03-24T19:28:50.511Z,10.60
2023-03-24T19:31:20.759Z,10.60
2023-03-24T19:33:51.530Z,10.70
2023-03-24T19:36:20.937Z,10.70
2023-03-24T19:38:48.892Z,10.70
2023-03-24T19:41:16.972Z,10.60
2023-03-24T19:43:44.903Z,10.50
2023-03-24T19:46:12.960Z,10.40
2023-03-24T19:48:41.249Z,10.40
2023-03-24T19:51:09.480Z,10.30
2023-03-24T19:53:38.989Z,10.20
2023-03-24T19:56:08.005Z,10.10
2023-03-24T19:58:36.041Z,10.00
2023-03-24T20:01:04.112Z,10.00
2023-03-24T20:03:32.436Z,10.00
2023-03-24T20:06:05.086Z,10.00
2023-03-24T20:08:33.616Z,10.00
2023-03-24T20:11:04.011Z,10.00
2023-03-24T20:13:32.325Z,9.90
2023-03-24T20:16:00.357Z,10.00
2023-03-24T20:18:28.500Z,9.90
2023-03-24T20:20:57.170Z,9.90
2023-03-24T20:23:25.756Z,9.90
2023-03-24T20:25:54.540Z,9.70
2023-03-24T20:28:23.850Z,9.60
2023-03-24T20:30:52.313Z,9.60
2023-03-24T20:33:20.817Z,9.50
2023-03-24T20:35:48.941Z,9.40
2023-03-24T20:38:17.119Z,9.40
2023-03-24T20:40:45.322Z,9.30
2023-03-24T20:43:13.456Z,9.30
2023-03-24T20:45:42.835Z,9.20
2023-03-24T20:48:10.942Z,9.20
2023-03-24T20:50:38.947Z,9.30
2023-03-24T20:53:07.366Z,9.30
2023-03-24T20:55:35.909Z,9.40
2023-03-24T20:58:08.058Z,9.40
2023-03-24T21:00:37.871Z,9.30
2023-03-24T21:03:07.740Z,9.30
2023-03-24T21:05:35.834Z,9.20
2023-03-24T21:08:03.767Z,9.20
2023-03-24T21:10:32.044Z,9.10
2023-03-24T21:13:00.008Z,9.00
2023-03-24T21:15:28.892Z,8.90
2023-03-24T21:17:56.981Z,8.90
2023-03-24T21:20:28.421Z,8.90
2023-03-24T21:22:56.368Z,8.80
2023-03-24T21:25:26.246Z,8.80
2023-03-24T21:27:55.032Z,8.80
2023-03-24T21:30:24.094Z,8.90
2023-03-24T21:32:53.774Z,8.90
2023-03-24T21:35:22.482Z,8.90
2023-03-24T21:37:53.548Z,8.80
2023-03-24T21:40:24.004Z,8.80
2023-03-24T21:42:53.588Z,8.80
2023-03-24T21:45:24.139Z,8.80
2023-03-24T21:47:54.965Z,8.80
2023-03-24T21:50:23.995Z,8.80
2023-03-24T21:52:55.464Z,8.90
2023-03-24T21:55:26.854Z,8.90
2023-03-24T21:57:56.709Z,8.90
2023-03-24T22:00:29.961Z,9.00
2023-03-24T22:02:58.332Z,9.00
2023-03-24T22:05:27.751Z,9.10
2023-03-24T22:07:57.156Z,9.10
2023-03-24T22:10:29.871Z,9.10
2023-03-24T22:12:58.230Z,9.10
2023-03-24T22:15:26.195Z,9.00
2023-03-24T22:17:54.190Z,9.00
2023-03-24T22:20:22.464Z,9.10
2023-03-24T22:22:50.630Z,9.00
2023-03-24T22:25:20.204Z,9.00
2023-03-24T22:27:51.359Z,9.00
2023-03-24T22:30:20.734Z,8.90
2023-03-24T22:32:48.882Z,8.90
2023-03-24T22:35:17.063Z,8.90
2023-03-24T22:37:45.297Z,8.90
2023-03-24T22:40:13.388Z,8.80
2023-03-24T22:42:42.674Z,8.80
2023-03-24T22:45:11.268Z,8.70
2023-03-24T22:47:39.261Z,8.70
2023-03-24T22:50:09.505Z,8.70
2023-03-24T22:52:37.470Z,8.60
2023-03-24T22:55:05.988Z,8.50
2023-03-24T22:57:33.950Z,8.50
2023-03-24T23:00:03.309Z,8.50
2023-03-24T23:02:31.370Z,8.50
2023-03-24T23:04:59.399Z,8.50
2023-03-24T23:07:28.797Z,8.40
2023-03-24T23:09:59.415Z,8.40
2023-03-24T23:12:27.618Z,8.40
2023-03-24T23:14:55.973Z,8.40
2023-03-24T23:17:25.484Z,8.30
2023-03-24T23:19:53.862Z,8.20
2023-03-24T23:22:22.279Z,8.20
2023-03-24T23:24:53.725Z,8.20
2023-03-24T23:27:34.583Z,8.20
2023-03-24T23:30:02.665Z,8.20
2023-03-24T23:32:33.380Z,8.10
2023-03-24T23:35:02.870Z,8.10
2023-03-24T23:37:32.075Z,8.20
2023-03-24T23:40:02.258Z,8.20
2023-03-24T23:42:32.611Z,8.20
2023-03-24T23:45:00.550Z,8.10
2023-03-24T23:47:28.896Z,8.10
2023-03-24T23:49:58.617Z,8.10
2023-03-24T23:52:26.570Z,8.10
2023-03-24T23:54:54.574Z,8.10
2023-03-24T23:57:22.606Z,8.10
2023-03-24T23:59:53.017Z,8.20
